sensor_id;sensor_type;location;lat;lon;timestamp;P1;durP1;ratioP1;P2;durP2;ratioP2
15635;SDS011;7917;50.818;6.972;2024-01-15T00:01:07;26.65;;;13.05;;
15635;SDS011;7917;50.818;6.972;2024-01-15T00:03:34;26.38;;;12.32;;
15635;SDS011;7917;50.818;6.972;2024-01-15T00:06:00;31.20;;;14.02;;
15635;SDS011;7917;50.818;6.972;2024-01-15T00:08:28;28.23;;;12.82;;
15635;SDS011;7917;50.818;6.972;2024-01-15T00:10:54;32.88;;;13.73;;
15635;SDS011;7917;50.818;6.972;2024-01-15T00:13:20;26.70;;;13.00;;
15635;SDS011;7917;50.818;6.972;2024-01-15T00:15:48;29.67;;;12.85;;
15635;SDS011;7917;50.818;6.972;2024-01-15T00:18:14;28.98;;;12.43;;
15635;SDS011;7917;50.818;6.972;2024-01-15T00:20:41;28.88;;;13.77;;
15635;SDS011;7917;50.818;6.972;2024-01-15T00:23:07;25.35;;;11.70;;
15635;SDS011;7917;50.818;6.972;2024-01-15T00:25:34;31.45;;;14.35;;
15635;SDS011;7917;50.818;6.972;2024-01-15T00:28:00;30.98;;;13.35;;
15635;SDS011;7917;50.818;6.972;2024-01-15T00:30:27;24.00;;;11.75;;
15635;SDS011;7917;50.818;6.972;2024-01-15T00:32:54;25.02;;;12.25;;
15635;SDS011;7917;50.818;6.972;2024-01-15T00:35:20;31.33;;;14.45;;
15635;SDS011;7917;50.818;6.972;2024-01-15T00:37:47;32.95;;;13.43;;
15635;SDS011;7917;50.818;6.972;2024-01-15T00:40:14;25.60;;;12.25;;
15635;SDS011;7917;50.818;6.972;2024-01-15T00:42:44;27.05;;;13.00;;
15635;SDS011;7917;50.818;6.972;2024-01-15T00:45:12;29.75;;;12.60;;
15635;SDS011;7917;50.818;6.972;2024-01-15T00:47:38;28.17;;;13.10;;
15635;SDS011;7917;50.818;6.972;2024-01-15T00:50:06;31.73;;;12.55;;
15635;SDS011;7917;50.818;6.972;2024-01-15T00:52:34;27.98;;;12.60;;
15635;SDS011;7917;50.818;6.972;2024-01-15T00:55:01;29.70;;;14.00;;
15635;SDS011;7917;50.818;6.972;2024-01-15T00:57:27;27.50;;;14.13;;
15635;SDS011;7917;50.818;6.972;2024-01-15T00:59:54;30.10;;;13.27;;
15635;SDS011;7917;50.818;6.972;2024-01-15T01:02:22;25.50;;;11.50;;
15635;SDS011;7917;50.818;6.972;2024-01-15T01:04:48;25.33;;;12.57;;
15635;SDS011;7917;50.818;6.972;2024-01-15T01:07:15;29.00;;;13.55;;
15635;SDS011;7917;50.818;6.972;2024-01-15T01:09:43;26.50;;;13.27;;
15635;SDS011;7917;50.818;6.972;2024-01-15T01:12:10;31.05;;;13.25;;
15635;SDS011;7917;50.818;6.972;2024-01-15T01:14:37;34.70;;;14.35;;
15635;SDS011;7917;50.818;6.972;2024-01-15T01:17:07;31.13;;;15.27;;
15635;SDS011;7917;50.818;6.972;2024-01-15T01:19:34;29.00;;;13.30;;
15635;SDS011;7917;50.818;6.972;2024-01-15T01:22:00;35.58;;;14.15;;
15635;SDS011;7917;50.818;6.972;2024-01-15T01:24:27;29.45;;;13.88;;
15635;SDS011;7917;50.818;6.972;2024-01-15T01:27:00;30.88;;;14.95;;
15635;SDS011;7917;50.818;6.972;2024-01-15T01:29:26;26.38;;;12.70;;
15635;SDS011;7917;50.818;6.972;2024-01-15T01:31:53;30.15;;;14.07;;
15635;SDS011;7917;50.818;6.972;2024-01-15T01:34:19;34.15;;;15.35;;
15635;SDS011;7917;50.818;6.972;2024-01-15T01:36:45;32.90;;;13.98;;
15635;SDS011;7917;50.818;6.972;2024-01-15T01:39:12;37.00;;;16.45;;
15635;SDS011;7917;50.818;6.972;2024-01-15T01:41:39;36.80;;;15.85;;
15635;SDS011;7917;50.818;6.972;2024-01-15T01:44:06;38.40;;;15.27;;
15635;SDS011;7917;50.818;6.972;2024-01-15T01:46:32;31.02;;;15.77;;
15635;SDS011;7917;50.818;6.972;2024-01-15T01:49:04;34.83;;;17.25;;
15635;SDS011;7917;50.818;6.972;2024-01-15T01:51:31;41.47;;;16.02;;
15635;SDS011;7917;50.818;6.972;2024-01-15T01:54:00;33.78;;;16.10;;
15635;SDS011;7917;50.818;6.972;2024-01-15T01:56:27;37.95;;;16.38;;
15635;SDS011;7917;50.818;6.972;2024-01-15T01:58:58;39.90;;;17.15;;
15635;SDS011;7917;50.818;6.972;2024-01-15T02:01:25;38.65;;;16.55;;
15635;SDS011;7917;50.818;6.972;2024-01-15T02:03:55;36.15;;;16.33;;
15635;SDS011;7917;50.818;6.972;2024-01-15T02:06:22;33.20;;;15.90;;
15635;SDS011;7917;50.818;6.972;2024-01-15T02:08:49;33.15;;;16.60;;
15635;SDS011;7917;50.818;6.972;2024-01-15T02:11:22;40.30;;;16.73;;
15635;SDS011;7917;50.818;6.972;2024-01-15T02:13:49;42.03;;;17.48;;
15635;SDS011;7917;50.818;6.972;2024-01-15T02:16:16;34.20;;;16.25;;
15635;SDS011;7917;50.818;6.972;2024-01-15T02:18:43;25.85;;;12.27;;
15635;SDS011;7917;50.818;6.972;2024-01-15T02:21:11;35.67;;;14.52;;
15635;SDS011;7917;50.818;6.972;2024-01-15T02:23:38;37.20;;;16.23;;
15635;SDS011;7917;50.818;6.972;2024-01-15T02:26:05;39.35;;;17.20;;
15635;SDS011;7917;50.818;6.972;2024-01-15T02:28:32;37.65;;;15.02;;
15635;SDS011;7917;50.818;6.972;2024-01-15T02:30:59;38.38;;;16.50;;
15635;SDS011;7917;50.818;6.972;2024-01-15T02:33:25;35.85;;;17.38;;
15635;SDS011;7917;50.818;6.972;2024-01-15T02:35:53;33.17;;;15.20;;
15635;SDS011;7917;50.818;6.972;2024-01-15T02:38:19;35.28;;;15.90;;
15635;SDS011;7917;50.818;6.972;2024-01-15T02:40:47;37.85;;;17.55;;
15635;SDS011;7917;50.818;6.972;2024-01-15T02:43:17;37.33;;;17.45;;
15635;SDS011;7917;50.818;6.972;2024-01-15T02:45:44;41.67;;;16.88;;
15635;SDS011;7917;50.818;6.972;2024-01-15T02:48:11;43.22;;;18.20;;
15635;SDS011;7917;50.818;6.972;2024-01-15T02:50:38;35.35;;;16.10;;
15635;SDS011;7917;50.818;6.972;2024-01-15T02:53:05;38.97;;;16.42;;
15635;SDS011;7917;50.818;6.972;2024-01-15T02:55:31;38.95;;;16.05;;
15635;SDS011;7917;50.818;6.972;2024-01-15T02:57:59;43.08;;;18.70;;
15635;SDS011;7917;50.818;6.972;2024-01-15T03:00:26;33.00;;;14.80;;
15635;SDS011;7917;50.818;6.972;2024-01-15T03:02:52;32.72;;;15.82;;
15635;SDS011;7917;50.818;6.972;2024-01-15T03:05:19;38.03;;;16.55;;
15635;SDS011;7917;50.818;6.972;2024-01-15T03:07:45;36.65;;;16.75;;
15635;SDS011;7917;50.818;6.972;2024-01-15T03:10:12;33.97;;;16.52;;
15635;SDS011;7917;50.818;6.972;2024-01-15T03:12:40;32.35;;;14.70;;
15635;SDS011;7917;50.818;6.972;2024-01-15T03:15:07;32.22;;;15.63;;
15635;SDS011;7917;50.818;6.972;2024-01-15T03:17:34;35.38;;;15.98;;
15635;SDS011;7917;50.818;6.972;2024-01-15T03:20:01;31.05;;;15.23;;
15635;SDS011;7917;50.818;6.972;2024-01-15T03:22:28;33.10;;;15.77;;
15635;SDS011;7917;50.818;6.972;2024-01-15T03:24:54;35.95;;;15.57;;
15635;SDS011;7917;50.818;6.972;2024-01-15T03:27:22;31.52;;;16.90;;
15635;SDS011;7917;50.818;6.972;2024-01-15T03:29:48;34.78;;;17.05;;
15635;SDS011;7917;50.818;6.972;2024-01-15T03:32:15;32.03;;;16.30;;
15635;SDS011;7917;50.818;6.972;2024-01-15T03:34:43;30.73;;;14.88;;
15635;SDS011;7917;50.818;6.972;2024-01-15T03:37:09;29.35;;;14.75;;
15635;SDS011;7917;50.818;6.972;2024-01-15T03:39:36;29.63;;;14.48;;
15635;SDS011;7917;50.818;6.972;2024-01-15T03:42:02;31.05;;;15.80;;
15635;SDS011;7917;50.818;6.972;2024-01-15T03:44:29;35.63;;;17.33;;
15635;SDS011;7917;50.818;6.972;2024-01-15T03:46:55;32.90;;;15.95;;
15635;SDS011;7917;50.818;6.972;2024-01-15T03:49:24;31.80;;;15.50;;
15635;SDS011;7917;50.818;6.972;2024-01-15T03:51:51;33.10;;;15.68;;
15635;SDS011;7917;50.818;6.972;2024-01-15T03:54:17;27.15;;;13.88;;
15635;SDS011;7917;50.818;6.972;2024-01-15T03:56:44;30.05;;;16.40;;
15635;SDS011;7917;50.818;6.972;2024-01-15T03:59:10;31.75;;;15.88;;
15635;SDS011;7917;50.818;6.972;2024-01-15T04:04:59;33.35;;;16.40;;
15635;SDS011;7917;50.818;6.972;2024-01-15T04:07:26;34.78;;;17.35;;
15635;SDS011;7917;50.818;6.972;2024-01-15T04:09:52;32.03;;;15.30;;
15635;SDS011;7917;50.818;6.972;2024-01-15T04:12:19;33.10;;;16.60;;
15635;SDS011;7917;50.818;6.972;2024-01-15T04:14:45;35.42;;;16.70;;
15635;SDS011;7917;50.818;6.972;2024-01-15T04:17:12;36.55;;;16.70;;
15635;SDS011;7917;50.818;6.972;2024-01-15T04:19:38;34.25;;;16.80;;
15635;SDS011;7917;50.818;6.972;2024-01-15T04:22:09;35.20;;;16.60;;
15635;SDS011;7917;50.818;6.972;2024-01-15T04:24:36;31.70;;;16.27;;
15635;SDS011;7917;50.818;6.972;2024-01-15T04:27:05;32.25;;;15.82;;
15635;SDS011;7917;50.818;6.972;2024-01-15T04:29:32;33.78;;;16.17;;
15635;SDS011;7917;50.818;6.972;2024-01-15T04:31:59;30.83;;;15.82;;
15635;SDS011;7917;50.818;6.972;2024-01-15T04:34:25;30.95;;;15.32;;
15635;SDS011;7917;50.818;6.972;2024-01-15T04:36:52;33.25;;;15.55;;
15635;SDS011;7917;50.818;6.972;2024-01-15T04:39:19;33.80;;;14.38;;
15635;SDS011;7917;50.818;6.972;2024-01-15T04:41:45;32.10;;;14.15;;
15635;SDS011;7917;50.818;6.972;2024-01-15T04:44:12;29.88;;;14.27;;
15635;SDS011;7917;50.818;6.972;2024-01-15T04:46:38;28.05;;;14.20;;
15635;SDS011;7917;50.818;6.972;2024-01-15T04:49:05;28.13;;;13.15;;
15635;SDS011;7917;50.818;6.972;2024-01-15T04:51:32;31.73;;;14.93;;
15635;SDS011;7917;50.818;6.972;2024-01-15T04:54:00;27.65;;;13.85;;
15635;SDS011;7917;50.818;6.972;2024-01-15T04:56:27;31.75;;;14.45;;
15635;SDS011;7917;50.818;6.972;2024-01-15T04:58:53;24.33;;;13.50;;
15635;SDS011;7917;50.818;6.972;2024-01-15T05:01:19;28.80;;;14.00;;
15635;SDS011;7917;50.818;6.972;2024-01-15T05:03:46;20.75;;;10.65;;
15635;SDS011;7917;50.818;6.972;2024-01-15T05:06:12;27.10;;;14.57;;
15635;SDS011;7917;50.818;6.972;2024-01-15T05:08:39;28.83;;;14.57;;
15635;SDS011;7917;50.818;6.972;2024-01-15T05:11:05;29.25;;;13.63;;
15635;SDS011;7917;50.818;6.972;2024-01-15T05:13:33;29.70;;;14.27;;
15635;SDS011;7917;50.818;6.972;2024-01-15T05:15:59;28.00;;;13.95;;
15635;SDS011;7917;50.818;6.972;2024-01-15T05:18:26;27.27;;;14.00;;
15635;SDS011;7917;50.818;6.972;2024-01-15T05:20:53;26.50;;;14.45;;
15635;SDS011;7917;50.818;6.972;2024-01-15T05:23:19;29.02;;;13.98;;
15635;SDS011;7917;50.818;6.972;2024-01-15T05:25:46;33.20;;;15.75;;
15635;SDS011;7917;50.818;6.972;2024-01-15T05:28:13;27.58;;;13.90;;
15635;SDS011;7917;50.818;6.972;2024-01-15T05:30:40;30.02;;;15.50;;
15635;SDS011;7917;50.818;6.972;2024-01-15T05:33:07;31.38;;;16.50;;
15635;SDS011;7917;50.818;6.972;2024-01-15T05:35:33;33.33;;;15.82;;
15635;SDS011;7917;50.818;6.972;2024-01-15T05:37:59;27.65;;;15.57;;
15635;SDS011;7917;50.818;6.972;2024-01-15T05:40:27;34.03;;;15.60;;
15635;SDS011;7917;50.818;6.972;2024-01-15T05:42:59;28.10;;;14.98;;
15635;SDS011;7917;50.818;6.972;2024-01-15T05:45:26;27.85;;;15.55;;
15635;SDS011;7917;50.818;6.972;2024-01-15T05:47:53;31.75;;;16.08;;
15635;SDS011;7917;50.818;6.972;2024-01-15T05:50:19;31.10;;;15.13;;
15635;SDS011;7917;50.818;6.972;2024-01-15T05:52:45;28.55;;;14.10;;
15635;SDS011;7917;50.818;6.972;2024-01-15T05:55:13;28.20;;;14.55;;
15635;SDS011;7917;50.818;6.972;2024-01-15T05:57:39;30.10;;;15.27;;
15635;SDS011;7917;50.818;6.972;2024-01-15T06:00:06;28.25;;;15.95;;
15635;SDS011;7917;50.818;6.972;2024-01-15T06:02:35;29.70;;;14.98;;
15635;SDS011;7917;50.818;6.972;2024-01-15T06:05:03;28.50;;;14.80;;
15635;SDS011;7917;50.818;6.972;2024-01-15T06:07:30;30.15;;;15.38;;
15635;SDS011;7917;50.818;6.972;2024-01-15T06:09:56;25.80;;;14.95;;
15635;SDS011;7917;50.818;6.972;2024-01-15T06:12:23;29.25;;;15.35;;
15635;SDS011;7917;50.818;6.972;2024-01-15T06:14:49;29.40;;;15.63;;
15635;SDS011;7917;50.818;6.972;2024-01-15T06:17:15;26.02;;;14.13;;
15635;SDS011;7917;50.818;6.972;2024-01-15T06:19:42;27.52;;;14.27;;
15635;SDS011;7917;50.818;6.972;2024-01-15T06:22:08;33.20;;;15.90;;
15635;SDS011;7917;50.818;6.972;2024-01-15T06:24:35;29.23;;;15.75;;
15635;SDS011;7917;50.818;6.972;2024-01-15T06:27:01;30.05;;;15.43;;
15635;SDS011;7917;50.818;6.972;2024-01-15T06:29:28;26.67;;;14.65;;
15635;SDS011;7917;50.818;6.972;2024-01-15T06:31:55;29.17;;;15.95;;
15635;SDS011;7917;50.818;6.972;2024-01-15T06:34:21;27.65;;;16.75;;
15635;SDS011;7917;50.818;6.972;2024-01-15T06:36:49;30.77;;;16.17;;
15635;SDS011;7917;50.818;6.972;2024-01-15T06:39:19;29.10;;;16.23;;
15635;SDS011;7917;50.818;6.972;2024-01-15T06:41:45;29.83;;;17.10;;
15635;SDS011;7917;50.818;6.972;2024-01-15T06:44:12;29.90;;;15.88;;
15635;SDS011;7917;50.818;6.972;2024-01-15T06:46:41;36.22;;;17.92;;
15635;SDS011;7917;50.818;6.972;2024-01-15T06:49:08;30.65;;;15.77;;
15635;SDS011;7917;50.818;6.972;2024-01-15T06:51:34;31.90;;;17.05;;
15635;SDS011;7917;50.818;6.972;2024-01-15T06:54:02;31.60;;;15.88;;
15635;SDS011;7917;50.818;6.972;2024-01-15T06:56:29;36.42;;;17.35;;
15635;SDS011;7917;50.818;6.972;2024-01-15T06:58:58;36.25;;;16.98;;
15635;SDS011;7917;50.818;6.972;2024-01-15T07:01:26;31.00;;;16.30;;
15635;SDS011;7917;50.818;6.972;2024-01-15T07:03:52;39.40;;;17.65;;
15635;SDS011;7917;50.818;6.972;2024-01-15T07:06:21;33.38;;;16.88;;
15635;SDS011;7917;50.818;6.972;2024-01-15T07:08:48;35.13;;;18.17;;
15635;SDS011;7917;50.818;6.972;2024-01-15T07:11:15;33.33;;;16.00;;
15635;SDS011;7917;50.818;6.972;2024-01-15T07:13:42;37.17;;;17.55;;
15635;SDS011;7917;50.818;6.972;2024-01-15T07:16:08;33.88;;;18.05;;
15635;SDS011;7917;50.818;6.972;2024-01-15T07:18:35;36.38;;;17.73;;
15635;SDS011;7917;50.818;6.972;2024-01-15T07:21:01;31.52;;;18.17;;
15635;SDS011;7917;50.818;6.972;2024-01-15T07:23:30;28.98;;;16.10;;
15635;SDS011;7917;50.818;6.972;2024-01-15T07:25:57;32.17;;;15.55;;
15635;SDS011;7917;50.818;6.972;2024-01-15T07:28:23;31.95;;;15.63;;
15635;SDS011;7917;50.818;6.972;2024-01-15T07:30:51;34.15;;;16.80;;
15635;SDS011;7917;50.818;6.972;2024-01-15T07:33:18;35.30;;;16.65;;
15635;SDS011;7917;50.818;6.972;2024-01-15T07:35:44;37.00;;;16.58;;
15635;SDS011;7917;50.818;6.972;2024-01-15T07:38:11;34.53;;;15.57;;
15635;SDS011;7917;50.818;6.972;2024-01-15T07:40:38;29.83;;;16.00;;
15635;SDS011;7917;50.818;6.972;2024-01-15T07:43:04;33.22;;;16.30;;
15635;SDS011;7917;50.818;6.972;2024-01-15T07:45:37;33.03;;;15.55;;
15635;SDS011;7917;50.818;6.972;2024-01-15T07:48:04;30.42;;;14.82;;
15635;SDS011;7917;50.818;6.972;2024-01-15T07:50:31;30.13;;;15.07;;
15635;SDS011;7917;50.818;6.972;2024-01-15T07:52:58;29.83;;;15.02;;
15635;SDS011;7917;50.818;6.972;2024-01-15T07:55:24;28.35;;;14.38;;
15635;SDS011;7917;50.818;6.972;2024-01-15T07:57:51;29.42;;;14.55;;
15635;SDS011;7917;50.818;6.972;2024-01-15T08:00:19;30.75;;;16.02;;
15635;SDS011;7917;50.818;6.972;2024-01-15T08:02:46;29.05;;;13.85;;
15635;SDS011;7917;50.818;6.972;2024-01-15T08:05:13;30.65;;;14.88;;
15635;SDS011;7917;50.818;6.972;2024-01-15T08:07:39;30.98;;;14.10;;
15635;SDS011;7917;50.818;6.972;2024-01-15T08:10:06;24.55;;;14.02;;
15635;SDS011;7917;50.818;6.972;2024-01-15T08:12:33;25.40;;;13.20;;
15635;SDS011;7917;50.818;6.972;2024-01-15T08:14:59;25.88;;;14.63;;
15635;SDS011;7917;50.818;6.972;2024-01-15T08:17:26;24.70;;;12.40;;
15635;SDS011;7917;50.818;6.972;2024-01-15T08:19:53;30.08;;;13.68;;
15635;SDS011;7917;50.818;6.972;2024-01-15T08:22:21;26.83;;;14.10;;
15635;SDS011;7917;50.818;6.972;2024-01-15T08:24:48;26.70;;;12.75;;
15635;SDS011;7917;50.818;6.972;2024-01-15T08:27:14;31.02;;;13.25;;
15635;SDS011;7917;50.818;6.972;2024-01-15T08:29:41;29.75;;;13.57;;
15635;SDS011;7917;50.818;6.972;2024-01-15T08:32:07;25.60;;;13.40;;
15635;SDS011;7917;50.818;6.972;2024-01-15T08:34:42;25.25;;;13.40;;
15635;SDS011;7917;50.818;6.972;2024-01-15T08:37:10;24.38;;;11.60;;
15635;SDS011;7917;50.818;6.972;2024-01-15T08:39:38;28.27;;;13.63;;
15635;SDS011;7917;50.818;6.972;2024-01-15T08:42:04;24.27;;;13.85;;
15635;SDS011;7917;50.818;6.972;2024-01-15T08:44:32;27.95;;;14.40;;
15635;SDS011;7917;50.818;6.972;2024-01-15T08:46:58;30.02;;;14.57;;
15635;SDS011;7917;50.818;6.972;2024-01-15T08:49:27;27.20;;;13.00;;
15635;SDS011;7917;50.818;6.972;2024-01-15T08:51:54;25.98;;;14.90;;
15635;SDS011;7917;50.818;6.972;2024-01-15T08:54:21;27.73;;;13.90;;
15635;SDS011;7917;50.818;6.972;2024-01-15T08:56:48;24.45;;;12.82;;
15635;SDS011;7917;50.818;6.972;2024-01-15T08:59:15;31.48;;;14.07;;
15635;SDS011;7917;50.818;6.972;2024-01-15T09:01:41;30.20;;;13.73;;
15635;SDS011;7917;50.818;6.972;2024-01-15T09:04:08;28.67;;;13.52;;
15635;SDS011;7917;50.818;6.972;2024-01-15T09:06:36;23.15;;;12.10;;
15635;SDS011;7917;50.818;6.972;2024-01-15T09:09:02;26.58;;;14.40;;
15635;SDS011;7917;50.818;6.972;2024-01-15T09:11:29;30.20;;;13.80;;
15635;SDS011;7917;50.818;6.972;2024-01-15T09:13:58;24.17;;;13.30;;
15635;SDS011;7917;50.818;6.972;2024-01-15T09:16:25;29.17;;;13.32;;
15635;SDS011;7917;50.818;6.972;2024-01-15T09:18:51;24.10;;;13.40;;
15635;SDS011;7917;50.818;6.972;2024-01-15T09:21:18;25.52;;;12.15;;
15635;SDS011;7917;50.818;6.972;2024-01-15T09:23:44;20.50;;;10.88;;
15635;SDS011;7917;50.818;6.972;2024-01-15T09:26:11;18.33;;;10.48;;
15635;SDS011;7917;50.818;6.972;2024-01-15T09:28:37;17.60;;;10.70;;
15635;SDS011;7917;50.818;6.972;2024-01-15T09:31:04;21.10;;;10.20;;
15635;SDS011;7917;50.818;6.972;2024-01-15T09:33:31;22.70;;;11.02;;
15635;SDS011;7917;50.818;6.972;2024-01-15T09:36:00;16.95;;;9.07;;
15635;SDS011;7917;50.818;6.972;2024-01-15T09:38:31;18.80;;;9.77;;
15635;SDS011;7917;50.818;6.972;2024-01-15T09:40:57;17.77;;;10.10;;
15635;SDS011;7917;50.818;6.972;2024-01-15T09:43:25;16.33;;;9.10;;
15635;SDS011;7917;50.818;6.972;2024-01-15T09:45:51;18.17;;;9.10;;
15635;SDS011;7917;50.818;6.972;2024-01-15T09:48:20;19.60;;;9.48;;
15635;SDS011;7917;50.818;6.972;2024-01-15T09:50:46;12.65;;;7.72;;
15635;SDS011;7917;50.818;6.972;2024-01-15T09:53:13;16.08;;;9.52;;
15635;SDS011;7917;50.818;6.972;2024-01-15T09:55:41;12.27;;;6.28;;
15635;SDS011;7917;50.818;6.972;2024-01-15T09:58:08;12.50;;;7.95;;
15635;SDS011;7917;50.818;6.972;2024-01-15T10:00:35;11.68;;;7.88;;
15635;SDS011;7917;50.818;6.972;2024-01-15T10:03:07;13.73;;;8.07;;
15635;SDS011;7917;50.818;6.972;2024-01-15T10:05:37;17.65;;;7.85;;
15635;SDS011;7917;50.818;6.972;2024-01-15T10:08:04;12.63;;;7.97;;
15635;SDS011;7917;50.818;6.972;2024-01-15T10:10:32;13.07;;;8.10;;
15635;SDS011;7917;50.818;6.972;2024-01-15T10:12:59;14.63;;;8.55;;
15635;SDS011;7917;50.818;6.972;2024-01-15T10:15:26;14.68;;;8.18;;
15635;SDS011;7917;50.818;6.972;2024-01-15T10:17:52;16.52;;;9.23;;
15635;SDS011;7917;50.818;6.972;2024-01-15T10:20:19;15.35;;;9.43;;
15635;SDS011;7917;50.818;6.972;2024-01-15T10:22:49;14.35;;;9.07;;
15635;SDS011;7917;50.818;6.972;2024-01-15T10:25:17;14.25;;;8.07;;
15635;SDS011;7917;50.818;6.972;2024-01-15T10:27:58;14.40;;;8.88;;
15635;SDS011;7917;50.818;6.972;2024-01-15T10:30:25;13.15;;;9.85;;
15635;SDS011;7917;50.818;6.972;2024-01-15T10:32:57;15.55;;;8.13;;
15635;SDS011;7917;50.818;6.972;2024-01-15T10:35:26;9.05;;;6.68;;
15635;SDS011;7917;50.818;6.972;2024-01-15T10:37:54;12.50;;;7.65;;
15635;SDS011;7917;50.818;6.972;2024-01-15T10:40:21;15.18;;;8.57;;
15635;SDS011;7917;50.818;6.972;2024-01-15T10:42:47;13.82;;;9.35;;
15635;SDS011;7917;50.818;6.972;2024-01-15T10:45:14;11.45;;;7.95;;
15635;SDS011;7917;50.818;6.972;2024-01-15T10:47:41;15.98;;;8.85;;
15635;SDS011;7917;50.818;6.972;2024-01-15T10:50:09;14.00;;;9.30;;
15635;SDS011;7917;50.818;6.972;2024-01-15T10:52:36;14.07;;;8.43;;
15635;SDS011;7917;50.818;6.972;2024-01-15T10:55:05;11.40;;;8.00;;
15635;SDS011;7917;50.818;6.972;2024-01-15T10:57:34;15.38;;;7.32;;
15635;SDS011;7917;50.818;6.972;2024-01-15T11:00:04;12.82;;;7.25;;
15635;SDS011;7917;50.818;6.972;2024-01-15T11:02:31;12.98;;;7.95;;
15635;SDS011;7917;50.818;6.972;2024-01-15T11:05:00;16.02;;;8.57;;
15635;SDS011;7917;50.818;6.972;2024-01-15T11:07:26;11.32;;;8.15;;
15635;SDS011;7917;50.818;6.972;2024-01-15T11:09:55;11.52;;;8.63;;
15635;SDS011;7917;50.818;6.972;2024-01-15T11:12:24;14.75;;;8.95;;
15635;SDS011;7917;50.818;6.972;2024-01-15T11:14:51;13.90;;;8.48;;
15635;SDS011;7917;50.818;6.972;2024-01-15T11:17:23;14.30;;;9.32;;
15635;SDS011;7917;50.818;6.972;2024-01-15T11:19:51;14.95;;;9.70;;
15635;SDS011;7917;50.818;6.972;2024-01-15T11:25:23;17.15;;;10.32;;
15635;SDS011;7917;50.818;6.972;2024-01-15T11:27:50;16.27;;;9.50;;
15635;SDS011;7917;50.818;6.972;2024-01-15T11:30:18;14.80;;;9.73;;
15635;SDS011;7917;50.818;6.972;2024-01-15T11:32:45;14.10;;;9.98;;
15635;SDS011;7917;50.818;6.972;2024-01-15T11:35:12;15.88;;;9.98;;
15635;SDS011;7917;50.818;6.972;2024-01-15T11:37:58;16.38;;;11.15;;
15635;SDS011;7917;50.818;6.972;2024-01-15T11:40:38;14.93;;;10.23;;
15635;SDS011;7917;50.818;6.972;2024-01-15T11:43:08;17.65;;;11.55;;
15635;SDS011;7917;50.818;6.972;2024-01-15T11:45:35;17.00;;;10.30;;
15635;SDS011;7917;50.818;6.972;2024-01-15T11:48:11;15.77;;;10.77;;
15635;SDS011;7917;50.818;6.972;2024-01-15T11:50:40;18.13;;;11.85;;
15635;SDS011;7917;50.818;6.972;2024-01-15T11:53:10;15.80;;;11.90;;
15635;SDS011;7917;50.818;6.972;2024-01-15T11:55:43;20.77;;;12.10;;
15635;SDS011;7917;50.818;6.972;2024-01-15T11:58:11;16.02;;;11.65;;
15635;SDS011;7917;50.818;6.972;2024-01-15T12:00:43;20.42;;;10.90;;
15635;SDS011;7917;50.818;6.972;2024-01-15T12:03:10;17.65;;;11.98;;
15635;SDS011;7917;50.818;6.972;2024-01-15T12:05:38;22.58;;;11.10;;
15635;SDS011;7917;50.818;6.972;2024-01-15T12:08:07;16.92;;;11.15;;
15635;SDS011;7917;50.818;6.972;2024-01-15T12:10:36;19.23;;;10.48;;
15635;SDS011;7917;50.818;6.972;2024-01-15T12:13:05;16.67;;;10.05;;
15635;SDS011;7917;50.818;6.972;2024-01-15T12:15:36;20.20;;;9.65;;
15635;SDS011;7917;50.818;6.972;2024-01-15T12:18:04;14.70;;;9.55;;
15635;SDS011;7917;50.818;6.972;2024-01-15T12:20:34;25.27;;;10.20;;
15635;SDS011;7917;50.818;6.972;2024-01-15T12:23:01;22.63;;;9.10;;
15635;SDS011;7917;50.818;6.972;2024-01-15T12:25:30;13.95;;;8.32;;
15635;SDS011;7917;50.818;6.972;2024-01-15T12:27:58;17.55;;;8.60;;
15635;SDS011;7917;50.818;6.972;2024-01-15T12:30:25;18.90;;;9.77;;
15635;SDS011;7917;50.818;6.972;2024-01-15T12:32:53;16.90;;;9.32;;
15635;SDS011;7917;50.818;6.972;2024-01-15T12:35:20;27.58;;;9.45;;
15635;SDS011;7917;50.818;6.972;2024-01-15T12:37:47;18.63;;;8.82;;
15635;SDS011;7917;50.818;6.972;2024-01-15T12:40:18;13.20;;;7.03;;
15635;SDS011;7917;50.818;6.972;2024-01-15T12:42:45;18.38;;;7.00;;
15635;SDS011;7917;50.818;6.972;2024-01-15T12:45:12;16.98;;;6.70;;
15635;SDS011;7917;50.818;6.972;2024-01-15T12:47:40;14.02;;;6.18;;
15635;SDS011;7917;50.818;6.972;2024-01-15T12:50:08;10.40;;;6.38;;
15635;SDS011;7917;50.818;6.972;2024-01-15T12:52:35;15.55;;;6.50;;
15635;SDS011;7917;50.818;6.972;2024-01-15T12:55:04;9.77;;;5.85;;
15635;SDS011;7917;50.818;6.972;2024-01-15T12:57:32;14.75;;;6.22;;
15635;SDS011;7917;50.818;6.972;2024-01-15T12:59:59;14.30;;;5.97;;
15635;SDS011;7917;50.818;6.972;2024-01-15T13:02:25;14.45;;;5.47;;
15635;SDS011;7917;50.818;6.972;2024-01-15T13:04:52;13.65;;;6.18;;
15635;SDS011;7917;50.818;6.972;2024-01-15T13:07:20;13.25;;;5.70;;
15635;SDS011;7917;50.818;6.972;2024-01-15T13:09:46;8.07;;;5.50;;
15635;SDS011;7917;50.818;6.972;2024-01-15T13:12:17;9.23;;;5.30;;
15635;SDS011;7917;50.818;6.972;2024-01-15T13:14:44;11.20;;;5.80;;
15635;SDS011;7917;50.818;6.972;2024-01-15T13:17:14;9.15;;;4.40;;
15635;SDS011;7917;50.818;6.972;2024-01-15T13:19:44;11.85;;;5.57;;
15635;SDS011;7917;50.818;6.972;2024-01-15T13:22:11;16.60;;;5.13;;
15635;SDS011;7917;50.818;6.972;2024-01-15T13:24:39;14.05;;;5.47;;
15635;SDS011;7917;50.818;6.972;2024-01-15T13:27:06;9.65;;;4.95;;
15635;SDS011;7917;50.818;6.972;2024-01-15T13:29:33;11.98;;;5.47;;
15635;SDS011;7917;50.818;6.972;2024-01-15T13:31:59;15.57;;;5.28;;
15635;SDS011;7917;50.818;6.972;2024-01-15T13:34:26;12.82;;;5.40;;
15635;SDS011;7917;50.818;6.972;2024-01-15T13:36:54;8.63;;;6.05;;
15635;SDS011;7917;50.818;6.972;2024-01-15T13:39:21;13.98;;;5.10;;
15635;SDS011;7917;50.818;6.972;2024-01-15T13:41:50;10.27;;;4.95;;
15635;SDS011;7917;50.818;6.972;2024-01-15T13:44:17;9.20;;;4.63;;
15635;SDS011;7917;50.818;6.972;2024-01-15T13:46:44;9.10;;;5.03;;
15635;SDS011;7917;50.818;6.972;2024-01-15T13:49:12;8.48;;;4.90;;
15635;SDS011;7917;50.818;6.972;2024-01-15T13:51:39;10.57;;;4.88;;
15635;SDS011;7917;50.818;6.972;2024-01-15T13:54:06;10.02;;;5.13;;
15635;SDS011;7917;50.818;6.972;2024-01-15T13:56:33;11.48;;;4.75;;
15635;SDS011;7917;50.818;6.972;2024-01-15T13:59:01;10.38;;;5.15;;
15635;SDS011;7917;50.818;6.972;2024-01-15T14:01:29;7.65;;;4.25;;
15635;SDS011;7917;50.818;6.972;2024-01-15T14:03:57;8.55;;;5.15;;
15635;SDS011;7917;50.818;6.972;2024-01-15T14:06:24;10.02;;;5.28;;
15635;SDS011;7917;50.818;6.972;2024-01-15T14:08:51;7.65;;;5.50;;
15635;SDS011;7917;50.818;6.972;2024-01-15T14:11:19;8.60;;;4.60;;
15635;SDS011;7917;50.818;6.972;2024-01-15T14:13:45;6.28;;;4.45;;
15635;SDS011;7917;50.818;6.972;2024-01-15T14:16:20;4.13;;;3.50;;
15635;SDS011;7917;50.818;6.972;2024-01-15T14:18:49;6.13;;;4.10;;
15635;SDS011;7917;50.818;6.972;2024-01-15T14:21:16;10.20;;;4.22;;
15635;SDS011;7917;50.818;6.972;2024-01-15T14:23:44;6.57;;;4.15;;
15635;SDS011;7917;50.818;6.972;2024-01-15T14:26:10;6.78;;;3.88;;
15635;SDS011;7917;50.818;6.972;2024-01-15T14:28:37;6.18;;;3.33;;
15635;SDS011;7917;50.818;6.972;2024-01-15T14:31:04;8.07;;;4.00;;
15635;SDS011;7917;50.818;6.972;2024-01-15T14:33:31;6.57;;;3.97;;
15635;SDS011;7917;50.818;6.972;2024-01-15T14:35:59;4.75;;;3.10;;
15635;SDS011;7917;50.818;6.972;2024-01-15T14:38:26;6.18;;;3.63;;
15635;SDS011;7917;50.818;6.972;2024-01-15T14:40:52;4.97;;;2.83;;
15635;SDS011;7917;50.818;6.972;2024-01-15T14:43:19;4.03;;;2.97;;
15635;SDS011;7917;50.818;6.972;2024-01-15T14:45:46;2.70;;;2.40;;
15635;SDS011;7917;50.818;6.972;2024-01-15T14:48:13;3.83;;;2.65;;